sensor_id;sensor_type;location;lat;lon;timestamp;pressure;altitude;pressure_sealevel;temperature;humidity
9091;BME280;4581;42.416;25.598;2023-01-25T00:02:00;99852.09;;;2.50;88.59
9091;BME280;4581;42.416;25.598;2023-01-25T00:04:27;99855.81;;;2.48;88.38
9091;BME280;4581;42.416;25.598;2023-01-25T00:06:54;99851.22;;;2.35;89.12
9091;BME280;4581;42.416;25.598;2023-01-25T00:09:21;99850.34;;;2.35;89.61
9091;BME280;4581;42.416;25.598;2023-01-25T00:11:48;99848.44;;;2.37;87.53
9091;BME280;4581;42.416;25.598;2023-01-25T00:14:15;99839.91;;;2.32;87.74
9091;BME280;4581;42.416;25.598;2023-01-25T00:16:42;99845.56;;;2.26;85.87
9091;BME280;4581;42.416;25.598;2023-01-25T00:19:10;99839.13;;;2.30;85.78
9091;BME280;4581;42.416;25.598;2023-01-25T00:21:37;99838.59;;;2.39;86.03
9091;BME280;4581;42.416;25.598;2023-01-25T00:24:04;99836.88;;;2.38;86.18
9091;BME280;4581;42.416;25.598;2023-01-25T00:26:33;99840.19;;;2.42;84.09
9091;BME280;4581;42.416;25.598;2023-01-25T00:29:00;99841.25;;;2.39;83.94
9091;BME280;4581;42.416;25.598;2023-01-25T00:39:32;99828.28;;;2.33;82.25
9091;BME280;4581;42.416;25.598;2023-01-25T00:41:59;99831.16;;;2.30;81.82
9091;BME280;4581;42.416;25.598;2023-01-25T00:44:25;99837.25;;;2.32;82.48
9091;BME280;4581;42.416;25.598;2023-01-25T00:46:52;99833.72;;;2.31;83.37
9091;BME280;4581;42.416;25.598;2023-01-25T00:51:48;99826.22;;;2.24;82.93
9091;BME280;4581;42.416;25.598;2023-01-25T00:54:15;99825.53;;;2.20;82.20
9091;BME280;4581;42.416;25.598;2023-01-25T00:56:41;99829.13;;;2.19;82.80
9091;BME280;4581;42.416;25.598;2023-01-25T00:59:14;99828.28;;;2.19;82.25
9091;BME280;4581;42.416;25.598;2023-01-25T01:01:41;99822.09;;;2.18;82.28
9091;BME280;4581;42.416;25.598;2023-01-25T01:04:08;99828.00;;;2.23;83.35
9091;BME280;4581;42.416;25.598;2023-01-25T01:06:36;99828.00;;;2.23;82.42
9091;BME280;4581;42.416;25.598;2023-01-25T01:09:04;99817.81;;;2.16;82.81
9091;BME280;4581;42.416;25.598;2023-01-25T01:11:31;99810.31;;;2.08;82.38
9091;BME280;4581;42.416;25.598;2023-01-25T01:13:58;99810.13;;;2.11;82.57
9091;BME280;4581;42.416;25.598;2023-01-25T01:16:26;99813.53;;;2.13;82.59
9091;BME280;4581;42.416;25.598;2023-01-25T01:18:53;99822.69;;;2.23;83.34
9091;BME280;4581;42.416;25.598;2023-01-25T01:21:20;99811.25;;;2.21;83.11
9091;BME280;4581;42.416;25.598;2023-01-25T01:23:47;99813.84;;;2.23;82.46
9091;BME280;4581;42.416;25.598;2023-01-25T01:26:16;99816.09;;;2.15;81.00
9091;BME280;4581;42.416;25.598;2023-01-25T01:28:45;99809.13;;;1.98;81.42
9091;BME280;4581;42.416;25.598;2023-01-25T01:31:17;99817.88;;;2.00;81.51
9091;BME280;4581;42.416;25.598;2023-01-25T01:33:48;99819.28;;;1.92;81.46
9091;BME280;4581;42.416;25.598;2023-01-25T01:36:16;99820.59;;;1.84;82.31
9091;BME280;4581;42.416;25.598;2023-01-25T01:38:43;99814.22;;;1.87;82.38
9091;BME280;4581;42.416;25.598;2023-01-25T01:41:12;99813.28;;;1.88;82.65
9091;BME280;4581;42.416;25.598;2023-01-25T01:43:39;99816.19;;;1.83;83.01
9091;BME280;4581;42.416;25.598;2023-01-25T01:46:32;99822.88;;;1.91;83.13
9091;BME280;4581;42.416;25.598;2023-01-25T01:49:16;99815.81;;;1.89;83.20
9091;BME280;4581;42.416;25.598;2023-01-25T01:52:00;99818.25;;;1.78;82.12
9091;BME280;4581;42.416;25.598;2023-01-25T01:54:33;99810.47;;;1.75;81.25
9091;BME280;4581;42.416;25.598;2023-01-25T01:57:08;99807.63;;;1.78;82.08
9091;BME280;4581;42.416;25.598;2023-01-25T02:00:00;99810.97;;;1.82;82.16
9091;BME280;4581;42.416;25.598;2023-01-25T02:02:29;99818.69;;;1.86;82.33
9091;BME280;4581;42.416;25.598;2023-01-25T02:04:59;99817.81;;;1.86;82.84
9091;BME280;4581;42.416;25.598;2023-01-25T02:07:31;99820.88;;;1.94;82.76
9091;BME280;4581;42.416;25.598;2023-01-25T02:10:03;99812.84;;;1.96;82.78
9091;BME280;4581;42.416;25.598;2023-01-25T02:12:30;99812.72;;;1.97;81.89
9091;BME280;4581;42.416;25.598;2023-01-25T02:14:57;99810.16;;;1.96;82.16
9091;BME280;4581;42.416;25.598;2023-01-25T02:17:33;99815.22;;;2.00;81.54
9091;BME280;4581;42.416;25.598;2023-01-25T02:20:27;99815.31;;;1.99;81.18
9091;BME280;4581;42.416;25.598;2023-01-25T02:25:32;99803.31;;;1.92;80.21
9091;BME280;4581;42.416;25.598;2023-01-25T02:28:13;99817.38;;;1.94;80.61
9091;BME280;4581;42.416;25.598;2023-01-25T02:30:42;99813.34;;;1.86;80.66
9091;BME280;4581;42.416;25.598;2023-01-25T02:33:09;99811.09;;;1.95;80.46
9091;BME280;4581;42.416;25.598;2023-01-25T02:35:37;99811.19;;;1.93;80.85
9091;BME280;4581;42.416;25.598;2023-01-25T02:38:06;99802.72;;;1.86;80.59
9091;BME280;4581;42.416;25.598;2023-01-25T02:40:40;99801.78;;;1.87;81.22
9091;BME280;4581;42.416;25.598;2023-01-25T02:43:09;99804.19;;;1.92;80.46
9091;BME280;4581;42.416;25.598;2023-01-25T02:45:36;99809.31;;;1.95;81.51
9091;BME280;4581;42.416;25.598;2023-01-25T02:48:03;99801.16;;;1.98;81.24
9091;BME280;4581;42.416;25.598;2023-01-25T02:50:30;99804.00;;;1.95;81.83
9091;BME280;4581;42.416;25.598;2023-01-25T02:52:56;99796.28;;;1.91;80.43
9091;BME280;4581;42.416;25.598;2023-01-25T02:55:23;99808.84;;;2.03;80.83
9091;BME280;4581;42.416;25.598;2023-01-25T02:57:50;99813.22;;;2.04;80.47
9091;BME280;4581;42.416;25.598;2023-01-25T03:00:17;99794.88;;;1.99;81.29
9091;BME280;4581;42.416;25.598;2023-01-25T03:02:43;99811.06;;;2.10;80.96
9091;BME280;4581;42.416;25.598;2023-01-25T03:05:10;99808.41;;;2.10;81.10
9091;BME280;4581;42.416;25.598;2023-01-25T03:07:36;99809.06;;;2.14;81.38
9091;BME280;4581;42.416;25.598;2023-01-25T03:10:03;99812.50;;;2.16;81.29
9091;BME280;4581;42.416;25.598;2023-01-25T03:12:30;99802.28;;;2.24;80.95
9091;BME280;4581;42.416;25.598;2023-01-25T03:14:57;99808.13;;;2.29;81.71
9091;BME280;4581;42.416;25.598;2023-01-25T03:17:23;99808.13;;;2.29;80.37
9091;BME280;4581;42.416;25.598;2023-01-25T03:19:50;99806.81;;;2.22;79.30
9091;BME280;4581;42.416;25.598;2023-01-25T03:22:19;99798.75;;;2.23;80.74
9091;BME280;4581;42.416;25.598;2023-01-25T03:24:46;99804.34;;;2.19;80.58
9091;BME280;4581;42.416;25.598;2023-01-25T03:27:12;99807.19;;;2.16;81.16
9091;BME280;4581;42.416;25.598;2023-01-25T03:29:40;99803.75;;;2.14;81.37
9091;BME280;4581;42.416;25.598;2023-01-25T03:32:07;99798.34;;;2.15;81.18
9091;BME280;4581;42.416;25.598;2023-01-25T03:34:34;99801.34;;;2.09;80.32
9091;BME280;4581;42.416;25.598;2023-01-25T03:37:01;99801.72;;;2.03;80.38
9091;BME280;4581;42.416;25.598;2023-01-25T03:39:28;99805.41;;;2.01;80.23
9091;BME280;4581;42.416;25.598;2023-01-25T03:41:54;99807.91;;;2.04;80.22
9091;BME280;4581;42.416;25.598;2023-01-25T03:44:21;99802.69;;;2.02;80.52
9091;BME280;4581;42.416;25.598;2023-01-25T03:46:48;99809.03;;;2.00;80.45
9091;BME280;4581;42.416;25.598;2023-01-25T03:49:14;99808.81;;;1.88;80.82
9091;BME280;4581;42.416;25.598;2023-01-25T03:51:41;99801.19;;;1.82;81.06
9091;BME280;4581;42.416;25.598;2023-01-25T03:54:07;99796.47;;;1.87;81.06
9091;BME280;4581;42.416;25.598;2023-01-25T03:56:36;99804.19;;;1.92;81.56
9091;BME280;4581;42.416;25.598;2023-01-25T03:59:03;99796.94;;;1.94;81.77
9091;BME280;4581;42.416;25.598;2023-01-25T04:01:29;99807.50;;;1.96;80.29
9091;BME280;4581;42.416;25.598;2023-01-25T04:03:56;99802.88;;;1.99;81.12
9091;BME280;4581;42.416;25.598;2023-01-25T04:06:23;99803.13;;;1.95;80.85
9091;BME280;4581;42.416;25.598;2023-01-25T04:08:49;99805.13;;;1.91;79.62
9091;BME280;4581;42.416;25.598;2023-01-25T04:11:16;99805.19;;;1.89;80.58
9091;BME280;4581;42.416;25.598;2023-01-25T04:13:42;99802.53;;;1.89;80.31
9091;BME280;4581;42.416;25.598;2023-01-25T04:16:09;99805.38;;;1.86;80.58
9091;BME280;4581;42.416;25.598;2023-01-25T04:18:39;99802.13;;;1.81;80.31
9091;BME280;4581;42.416;25.598;2023-01-25T04:21:06;99809.94;;;1.84;80.73
9091;BME280;4581;42.416;25.598;2023-01-25T04:23:33;99803.50;;;1.88;80.83
9091;BME280;4581;42.416;25.598;2023-01-25T04:26:02;99805.75;;;1.80;79.77
9091;BME280;4581;42.416;25.598;2023-01-25T04:28:31;99804.63;;;1.84;80.37
9091;BME280;4581;42.416;25.598;2023-01-25T04:30:58;99816.53;;;1.77;79.88
9091;BME280;4581;42.416;25.598;2023-01-25T04:33:26;99825.31;;;1.79;79.96
9091;BME280;4581;42.416;25.598;2023-01-25T04:35:52;99825.81;;;1.70;79.75
9091;BME280;4581;42.416;25.598;2023-01-25T04:38:19;99824.09;;;1.69;79.64
9091;BME280;4581;42.416;25.598;2023-01-25T04:40:46;99827.53;;;1.71;80.68
9091;BME280;4581;42.416;25.598;2023-01-25T04:43:14;99822.41;;;1.68;80.15
9091;BME280;4581;42.416;25.598;2023-01-25T04:45:41;99825.06;;;1.68;79.82
9091;BME280;4581;42.416;25.598;2023-01-25T04:48:10;99828.66;;;1.67;79.70
9091;BME280;4581;42.416;25.598;2023-01-25T04:50:38;99820.44;;;1.72;79.29
9091;BME280;4581;42.416;25.598;2023-01-25T04:53:06;99818.56;;;1.58;79.16
9091;BME280;4581;42.416;25.598;2023-01-25T04:55:34;99823.69;;;1.61;78.93
9091;BME280;4581;42.416;25.598;2023-01-25T04:58:02;99818.03;;;1.67;80.44
9091;BME280;4581;42.416;25.598;2023-01-25T05:00:29;99808.00;;;1.72;79.89
9091;BME280;4581;42.416;25.598;2023-01-25T05:02:56;99815.38;;;1.67;79.30
9091;BME280;4581;42.416;25.598;2023-01-25T05:05:23;99817.25;;;1.65;79.72
9091;BME280;4581;42.416;25.598;2023-01-25T05:07:50;99817.84;;;1.70;80.53
9091;BME280;4581;42.416;25.598;2023-01-25T05:10:16;99815.00;;;1.73;79.46
9091;BME280;4581;42.416;25.598;2023-01-25T05:12:43;99821.97;;;1.76;78.98
9091;BME280;4581;42.416;25.598;2023-01-25T05:15:10;99821.56;;;1.68;78.27
9091;BME280;4581;42.416;25.598;2023-01-25T05:17:37;99805.41;;;1.71;80.48
9091;BME280;4581;42.416;25.598;2023-01-25T05:20:04;99808.06;;;1.71;79.07
9091;BME280;4581;42.416;25.598;2023-01-25T05:22:31;99815.13;;;1.56;78.88
9091;BME280;4581;42.416;25.598;2023-01-25T05:24:57;99822.06;;;1.59;78.76
9091;BME280;4581;42.416;25.598;2023-01-25T05:27:24;99826.94;;;1.66;79.54
9091;BME280;4581;42.416;25.598;2023-01-25T05:29:51;99826.34;;;1.61;78.97
9091;BME280;4581;42.416;25.598;2023-01-25T05:32:20;99827.47;;;1.57;78.95
9091;BME280;4581;42.416;25.598;2023-01-25T05:34:48;99828.31;;;1.58;79.86
9091;BME280;4581;42.416;25.598;2023-01-25T05:37:18;99835.44;;;1.57;78.47
9091;BME280;4581;42.416;25.598;2023-01-25T05:39:46;99831.50;;;1.64;78.76
9091;BME280;4581;42.416;25.598;2023-01-25T05:42:15;99831.31;;;1.67;79.99
9091;BME280;4581;42.416;25.598;2023-01-25T05:44:42;99836.47;;;1.70;79.80
9091;BME280;4581;42.416;25.598;2023-01-25T05:47:14;99833.34;;;1.78;79.79
9091;BME280;4581;42.416;25.598;2023-01-25T05:49:41;99829.09;;;1.60;78.58
9091;BME280;4581;42.416;25.598;2023-01-25T05:52:13;99820.16;;;1.61;78.55
9091;BME280;4581;42.416;25.598;2023-01-25T05:54:40;99841.53;;;1.59;78.32
9091;BME280;4581;42.416;25.598;2023-01-25T05:57:07;99843.94;;;1.64;79.46
9091;BME280;4581;42.416;25.598;2023-01-25T05:59:33;99836.38;;;1.72;80.14
9091;BME280;4581;42.416;25.598;2023-01-25T06:02:00;99836.88;;;1.78;79.79
9091;BME280;4581;42.416;25.598;2023-01-25T06:04:27;99838.84;;;1.75;79.42
9091;BME280;4581;42.416;25.598;2023-01-25T06:06:53;99832.50;;;1.77;79.95
9091;BME280;4581;42.416;25.598;2023-01-25T06:09:20;99837.28;;;1.86;78.89
9091;BME280;4581;42.416;25.598;2023-01-25T06:11:48;99840.56;;;1.76;78.54
9091;BME280;4581;42.416;25.598;2023-01-25T06:14:14;99842.38;;;1.75;79.22
9091;BME280;4581;42.416;25.598;2023-01-25T06:16:41;99837.72;;;1.79;78.82
9091;BME280;4581;42.416;25.598;2023-01-25T06:19:08;99841.00;;;1.84;78.85
9091;BME280;4581;42.416;25.598;2023-01-25T06:21:35;99846.03;;;1.88;79.79
9091;BME280;4581;42.416;25.598;2023-01-25T06:24:05;99862.53;;;1.79;78.50
9091;BME280;4581;42.416;25.598;2023-01-25T06:26:32;99855.66;;;1.75;78.66
9091;BME280;4581;42.416;25.598;2023-01-25T06:28:59;99848.09;;;1.83;78.91
9091;BME280;4581;42.416;25.598;2023-01-25T06:31:26;99856.16;;;1.82;78.06
9091;BME280;4581;42.416;25.598;2023-01-25T06:33:53;99862.69;;;1.76;79.10
9091;BME280;4581;42.416;25.598;2023-01-25T06:36:21;99850.69;;;1.69;79.45
9091;BME280;4581;42.416;25.598;2023-01-25T06:38:49;99854.31;;;1.68;79.76
9091;BME280;4581;42.416;25.598;2023-01-25T06:41:16;99856.84;;;1.70;79.47
9091;BME280;4581;42.416;25.598;2023-01-25T06:43:43;99862.00;;;1.73;80.64
9091;BME280;4581;42.416;25.598;2023-01-25T06:46:11;99857.19;;;1.79;80.08
9091;BME280;4581;42.416;25.598;2023-01-25T06:48:38;99848.97;;;1.84;80.51
9091;BME280;4581;42.416;25.598;2023-01-25T06:51:07;99855.47;;;1.78;79.87
9091;BME280;4581;42.416;25.598;2023-01-25T06:53:36;99841.25;;;1.79;79.40
9091;BME280;4581;42.416;25.598;2023-01-25T06:56:06;99850.41;;;1.89;79.41
9091;BME280;4581;42.416;25.598;2023-01-25T06:58:36;99850.63;;;2.01;80.05
9091;BME280;4581;42.416;25.598;2023-01-25T07:01:15;99852.69;;;2.11;79.44
9091;BME280;4581;42.416;25.598;2023-01-25T07:03:42;99852.06;;;2.06;78.74
9091;BME280;4581;42.416;25.598;2023-01-25T07:06:10;99850.69;;;2.15;78.37
9091;BME280;4581;42.416;25.598;2023-01-25T07:08:36;99846.97;;;2.17;79.64
9091;BME280;4581;42.416;25.598;2023-01-25T07:11:05;99849.56;;;2.19;78.30
9091;BME280;4581;42.416;25.598;2023-01-25T07:13:33;99849.38;;;2.22;78.87
9091;BME280;4581;42.416;25.598;2023-01-25T07:16:05;99854.16;;;2.31;79.23
9091;BME280;4581;42.416;25.598;2023-01-25T07:18:33;99844.72;;;2.25;78.58
9091;BME280;4581;42.416;25.598;2023-01-25T07:21:09;99847.09;;;2.30;78.46
9091;BME280;4581;42.416;25.598;2023-01-25T07:23:36;99846.16;;;2.31;77.33
9091;BME280;4581;42.416;25.598;2023-01-25T07:26:04;99847.44;;;2.40;76.31
9091;BME280;4581;42.416;25.598;2023-01-25T07:28:32;99846.56;;;2.39;76.54
9091;BME280;4581;42.416;25.598;2023-01-25T07:31:05;99852.47;;;2.44;76.35
9091;BME280;4581;42.416;25.598;2023-01-25T07:33:33;99849.97;;;2.41;76.42
9091;BME280;4581;42.416;25.598;2023-01-25T07:36:09;99860.75;;;2.54;77.55
9091;BME280;4581;42.416;25.598;2023-01-25T07:38:36;99860.59;;;2.57;75.82
9091;BME280;4581;42.416;25.598;2023-01-25T07:41:03;99855.75;;;2.63;75.14
9091;BME280;4581;42.416;25.598;2023-01-25T07:43:30;99861.13;;;2.62;74.23
9091;BME280;4581;42.416;25.598;2023-01-25T07:46:01;99855.94;;;2.60;74.10
9091;BME280;4581;42.416;25.598;2023-01-25T07:48:28;99861.06;;;2.63;72.72
9091;BME280;4581;42.416;25.598;2023-01-25T07:50:59;99859.34;;;2.62;72.84
9091;BME280;4581;42.416;25.598;2023-01-25T07:53:48;99862.00;;;2.62;74.25
9091;BME280;4581;42.416;25.598;2023-01-25T07:56:16;99861.81;;;2.51;72.14
9091;BME280;4581;42.416;25.598;2023-01-25T07:58:45;99845.84;;;2.51;73.77
9091;BME280;4581;42.416;25.598;2023-01-25T08:01:14;99863.91;;;2.74;74.61
9091;BME280;4581;42.416;25.598;2023-01-25T08:03:41;99862.13;;;2.89;74.94
9091;BME280;4581;42.416;25.598;2023-01-25T08:06:09;99861.19;;;2.76;72.01
9091;BME280;4581;42.416;25.598;2023-01-25T08:08:39;99869.34;;;2.87;73.28
9091;BME280;4581;42.416;25.598;2023-01-25T08:11:16;99862.41;;;2.85;73.19
9091;BME280;4581;42.416;25.598;2023-01-25T08:13:43;99867.06;;;2.95;72.73
9091;BME280;4581;42.416;25.598;2023-01-25T08:16:20;99874.78;;;3.00;73.01
9091;BME280;4581;42.416;25.598;2023-01-25T08:18:48;99876.41;;;2.88;72.17
9091;BME280;4581;42.416;25.598;2023-01-25T08:21:15;99876.88;;;2.95;72.58
9091;BME280;4581;42.416;25.598;2023-01-25T08:23:42;99880.31;;;2.97;72.49
9091;BME280;4581;42.416;25.598;2023-01-25T08:26:11;99885.81;;;2.94;72.34
9091;BME280;4581;42.416;25.598;2023-01-25T08:28:39;99878.38;;;2.99;73.68
9091;BME280;4581;42.416;25.598;2023-01-25T08:31:12;99882.38;;;2.92;72.03
9091;BME280;4581;42.416;25.598;2023-01-25T08:33:39;99880.13;;;3.00;73.22
9091;BME280;4581;42.416;25.598;2023-01-25T08:36:06;99868.50;;;3.01;72.89
9091;BME280;4581;42.416;25.598;2023-01-25T08:38:35;99872.69;;;3.05;73.47
9091;BME280;4581;42.416;25.598;2023-01-25T08:43:32;99876.88;;;3.09;73.01
9091;BME280;4581;42.416;25.598;2023-01-25T08:45:59;99879.72;;;3.06;72.62
9091;BME280;4581;42.416;25.598;2023-01-25T08:48:25;99874.69;;;3.15;73.97
9091;BME280;4581;42.416;25.598;2023-01-25T08:50:52;99867.34;;;3.19;72.83
9091;BME280;4581;42.416;25.598;2023-01-25T08:53:19;99873.25;;;3.24;73.22
9091;BME280;4581;42.416;25.598;2023-01-25T08:55:46;99874.84;;;3.26;73.62
9091;BME280;4581;42.416;25.598;2023-01-25T08:58:13;99875.81;;;3.25;72.33
9091;BME280;4581;42.416;25.598;2023-01-25T09:00:42;99881.63;;;3.32;72.94
9091;BME280;4581;42.416;25.598;2023-01-25T09:03:10;99874.56;;;3.31;73.04
9091;BME280;4581;42.416;25.598;2023-01-25T09:05:38;99870.78;;;3.21;70.85
9091;BME280;4581;42.416;25.598;2023-01-25T09:08:06;99873.81;;;3.29;70.96
9091;BME280;4581;42.416;25.598;2023-01-25T09:10:33;99854.13;;;3.32;71.82
9091;BME280;4581;42.416;25.598;2023-01-25T09:13:00;99858.38;;;3.48;70.63
9091;BME280;4581;42.416;25.598;2023-01-25T09:15:27;99857.66;;;3.59;71.89
9091;BME280;4581;42.416;25.598;2023-01-25T09:17:55;99849.94;;;3.68;71.95
9091;BME280;4581;42.416;25.598;2023-01-25T09:20:24;99858.03;;;3.67;69.11
9091;BME280;4581;42.416;25.598;2023-01-25T09:22:51;99852.13;;;3.62;68.39
9091;BME280;4581;42.416;25.598;2023-01-25T09:25:18;99845.84;;;3.63;68.08
9091;BME280;4581;42.416;25.598;2023-01-25T09:27:48;99834.69;;;3.70;68.54
9091;BME280;4581;42.416;25.598;2023-01-25T09:30:15;99838.28;;;3.69;67.03
9091;BME280;4581;42.416;25.598;2023-01-25T09:32:55;99828.09;;;3.76;67.61
9091;BME280;4581;42.416;25.598;2023-01-25T09:35:22;99818.78;;;3.96;67.49
9091;BME280;4581;42.416;25.598;2023-01-25T09:37:50;99818.13;;;3.92;65.38
9091;BME280;4581;42.416;25.598;2023-01-25T09:40:21;99823.22;;;3.83;64.97
9091;BME280;4581;42.416;25.598;2023-01-25T09:45:35;99818.00;;;3.94;65.14
9091;BME280;4581;42.416;25.598;2023-01-25T09:53:30;99796.97;;;3.76;66.18
9091;BME280;4581;42.416;25.598;2023-01-25T09:56:26;99789.50;;;3.82;66.00
9091;BME280;4581;42.416;25.598;2023-01-25T09:59:01;99781.00;;;4.02;65.81
9091;BME280;4581;42.416;25.598;2023-01-25T10:04:26;99787.38;;;3.87;65.23
9091;BME280;4581;42.416;25.598;2023-01-25T10:07:13;99773.53;;;3.94;66.31
9091;BME280;4581;42.416;25.598;2023-01-25T10:09:59;99766.09;;;4.12;65.88
9091;BME280;4581;42.416;25.598;2023-01-25T10:12:35;99774.44;;;4.20;65.20
9091;BME280;4581;42.416;25.598;2023-01-25T10:15:17;99762.31;;;4.02;64.92
9091;BME280;4581;42.416;25.598;2023-01-25T10:17:44;99768.84;;;4.10;64.76
9091;BME280;4581;42.416;25.598;2023-01-25T10:25:45;99753.69;;;4.11;63.84
9091;BME280;4581;42.416;25.598;2023-01-25T10:28:25;99760.75;;;4.12;63.32
9091;BME280;4581;42.416;25.598;2023-01-25T10:31:03;99750.63;;;4.04;65.13
9091;BME280;4581;42.416;25.598;2023-01-25T10:33:34;99755.41;;;4.12;63.89
9091;BME280;4581;42.416;25.598;2023-01-25T10:36:05;99726.56;;;3.92;62.06
9091;BME280;4581;42.416;25.598;2023-01-25T10:38:43;99744.09;;;4.08;62.68
9091;BME280;4581;42.416;25.598;2023-01-25T10:41:20;99736.47;;;3.90;61.27
9091;BME280;4581;42.416;25.598;2023-01-25T10:43:47;99728.94;;;3.96;63.72
9091;BME280;4581;42.416;25.598;2023-01-25T10:46:22;99727.09;;;3.84;63.35
9091;BME280;4581;42.416;25.598;2023-01-25T10:48:51;99718.03;;;3.99;63.18
9091;BME280;4581;42.416;25.598;2023-01-25T10:51:32;99711.97;;;4.10;63.02
9091;BME280;4581;42.416;25.598;2023-01-25T10:54:02;99714.44;;;4.13;62.16
9091;BME280;4581;42.416;25.598;2023-01-25T10:56:32;99721.25;;;4.30;62.69
9091;BME280;4581;42.416;25.598;2023-01-25T10:59:24;99714.66;;;4.35;61.43
9091;BME280;4581;42.416;25.598;2023-01-25T11:01:52;99711.03;;;4.36;61.67
9091;BME280;4581;42.416;25.598;2023-01-25T11:04:29;99701.75;;;4.29;63.86
9091;BME280;4581;42.416;25.598;2023-01-25T11:06:57;99699.25;;;4.39;61.14
9091;BME280;4581;42.416;25.598;2023-01-25T11:11:59;99690.72;;;4.34;61.25
9091;BME280;4581;42.416;25.598;2023-01-25T11:14:28;99695.00;;;4.36;60.65
9091;BME280;4581;42.416;25.598;2023-01-25T11:16:57;99682.53;;;4.24;62.00
9091;BME280;4581;42.416;25.598;2023-01-25T11:19:39;99703.97;;;4.22;61.52
9091;BME280;4581;42.416;25.598;2023-01-25T11:24:44;99684.88;;;4.41;61.30
9091;BME280;4581;42.416;25.598;2023-01-25T11:27:20;99675.38;;;4.12;62.27
9091;BME280;4581;42.416;25.598;2023-01-25T11:30:10;99687.63;;;4.27;63.34
9091;BME280;4581;42.416;25.598;2023-01-25T11:32:39;99683.56;;;4.34;62.08
9091;BME280;4581;42.416;25.598;2023-01-25T11:38:12;99683.78;;;4.31;61.19
9091;BME280;4581;42.416;25.598;2023-01-25T11:40:47;99678.56;;;4.17;61.15
9091;BME280;4581;42.416;25.598;2023-01-25T11:54:38;99659.03;;;4.29;62.17
9091;BME280;4581;42.416;25.598;2023-01-25T12:05:31;99646.88;;;4.00;63.07
9091;BME280;4581;42.416;25.598;2023-01-25T12:14:15;99633.00;;;3.95;63.55
9091;BME280;4581;42.416;25.598;2023-01-25T12:19:56;99633.41;;;4.01;63.08
9091;BME280;4581;42.416;25.598;2023-01-25T12:25:43;99633.63;;;4.11;62.95
9091;BME280;4581;42.416;25.598;2023-01-25T12:30:55;99614.53;;;4.17;62.61
9091;BME280;4581;42.416;25.598;2023-01-25T12:33:50;99607.78;;;4.24;63.29
9091;BME280;4581;42.416;25.598;2023-01-25T12:39:12;99615.28;;;4.06;62.97
9091;BME280;4581;42.416;25.598;2023-01-25T12:41:56;99618.88;;;4.05;64.62
9091;BME280;4581;42.416;25.598;2023-01-25T12:44:38;99616.88;;;3.84;62.78
9091;BME280;4581;42.416;25.598;2023-01-25T12:54:56;99610.47;;;3.86;64.25
9091;BME280;4581;42.416;25.598;2023-01-25T12:57:37;99610.94;;;3.93;62.85
9091;BME280;4581;42.416;25.598;2023-01-25T13:03:03;99599.94;;;3.85;62.43
9091;BME280;4581;42.416;25.598;2023-01-25T13:05:50;99592.34;;;3.91;63.23
9091;BME280;4581;42.416;25.598;2023-01-25T13:11:08;99576.75;;;3.98;64.03
9091;BME280;4581;42.416;25.598;2023-01-25T13:13:37;99575.06;;;3.97;62.50
9091;BME280;4581;42.416;25.598;2023-01-25T13:18:56;99582.84;;;3.74;63.15
9091;BME280;4581;42.416;25.598;2023-01-25T13:37:22;99572.38;;;3.46;65.42
9091;BME280;4581;42.416;25.598;2023-01-25T13:39:51;99572.50;;;3.57;66.04
9091;BME280;4581;42.416;25.598;2023-01-25T13:42:38;99574.44;;;3.55;65.82
9091;BME280;4581;42.416;25.598;2023-01-25T13:45:16;99575.72;;;3.62;65.63
9091;BME280;4581;42.416;25.598;2023-01-25T13:47:58;99574.84;;;3.49;64.66
9091;BME280;4581;42.416;25.598;2023-01-25T13:50:28;99576.00;;;3.45;64.76
9091;BME280;4581;42.416;25.598;2023-01-25T13:52:58;99578.88;;;3.42;65.63
9091;BME280;4581;42.416;25.598;2023-01-25T13:55:25;99582.59;;;3.27;66.61
9091;BME280;4581;42.416;25.598;2023-01-25T13:58:07;99563.34;;;3.36;66.76
9091;BME280;4581;42.416;25.598;2023-01-25T14:00:34;99563.13;;;3.52;67.45
9091;BME280;4581;42.416;25.598;2023-01-25T14:03:04;99573.78;;;3.52;66.91
9091;BME280;4581;42.416;25.598;2023-01-25T14:05:31;99572.38;;;3.46;65.64
9091;BME280;4581;42.416;25.598;2023-01-25T14:07:58;99563.22;;;3.38;66.63
9091;BME280;4581;42.416;25.598;2023-01-25T14:10:26;99559.91;;;3.47;66.66
9091;BME280;4581;42.416;25.598;2023-01-25T14:12:58;99563.31;;;3.61;66.41
9091;BME280;4581;42.416;25.598;2023-01-25T14:15:26;99567.38;;;3.54;65.92
9091;BME280;4581;42.416;25.598;2023-01-25T14:20:35;99579.44;;;3.60;65.95
9091;BME280;4581;42.416;25.598;2023-01-25T14:23:03;99577.19;;;3.54;66.59
9091;BME280;4581;42.416;25.598;2023-01-25T14:25:32;99578.88;;;3.42;66.69
9091;BME280;4581;42.416;25.598;2023-01-25T14:27:59;99571.00;;;3.41;67.52
9091;BME280;4581;42.416;25.598;2023-01-25T14:30:29;99564.81;;;3.40;68.52
9091;BME280;4581;42.416;25.598;2023-01-25T14:32:58;99571.19;;;3.25;68.60
9091;BME280;4581;42.416;25.598;2023-01-25T14:35:37;99566.06;;;3.22;68.63
9091;BME280;4581;42.416;25.598;2023-01-25T14:40:49;99569.03;;;3.05;69.44
9091;BME280;4581;42.416;25.598;2023-01-25T14:43:16;99566.78;;;2.99;69.76
9091;BME280;4581;42.416;25.598;2023-01-25T14:45:43;99575.19;;;2.93;69.92
9091;BME280;4581;42.416;25.598;2023-01-25T14:48:36;99576.69;;;2.97;70.81
9091;BME280;4581;42.416;25.598;2023-01-25T14:51:24;99575.19;;;2.93;70.65
9091;BME280;4581;42.416;25.598;2023-01-25T14:54:01;99580.69;;;2.90;71.06
9091;BME280;4581;42.416;25.598;2023-01-25T14:58:58;99579.44;;;2.95;71.66
9091;BME280;4581;42.416;25.598;2023-01-25T15:01:31;99584.69;;;2.97;71.78
9091;BME280;4581;42.416;25.598;2023-01-25T15:04:01;99579.34;;;2.97;71.58
9091;BME280;4581;42.416;25.598;2023-01-25T15:06:28;99583.91;;;2.95;71.36
9091;BME280;4581;42.416;25.598;2023-01-25T15:08:54;99584.00;;;2.93;71.74
9091;BME280;4581;42.416;25.598;2023-01-25T15:11:27;99589.84;;;2.86;70.78
9091;BME280;4581;42.416;25.598;2023-01-25T15:14:17;99584.72;;;2.82;71.19
9091;BME280;4581;42.416;25.598;2023-01-25T15:16:44;99583.63;;;2.72;71.26
9091;BME280;4581;42.416;25.598;2023-01-25T15:19:27;99583.81;;;2.69;71.59
9091;BME280;4581;42.416;25.598;2023-01-25T15:21:55;99579.94;;;2.61;71.65
9091;BME280;4581;42.416;25.598;2023-01-25T15:24:23;99578.75;;;2.52;71.90
9091;BME280;4581;42.416;25.598;2023-01-25T15:26:52;99577.31;;;2.47;72.35
9091;BME280;4581;42.416;25.598;2023-01-25T15:29:24;99582.72;;;2.45;72.46
9091;BME280;4581;42.416;25.598;2023-01-25T15:31:54;99581.34;;;2.40;72.72
9091;BME280;4581;42.416;25.598;2023-01-25T15:34:27;99574.75;;;2.45;72.31
9091;BME280;4581;42.416;25.598;2023-01-25T15:37:00;99572.59;;;2.38;72.91